M I D A S
Marine Information and Data Acquisition System
Tripno 1824 of the Zeeleeuw from 2009-12-10 09:05:04 to 2009-12-10 17:14:51
Back to CruiseResearch ActivitiesStationsMapUnderway DataData graphs

EquipmentUnitsComment
TimeDGPSUTC
LatitudeDGPSDM.mWGS84
LongitudeDGPSDM.mWGS84
HeadingGyrodeg 
SOGDGPSknotsSpeed over ground
COGDGPSdegCourse over ground
DepthEcho soundermeters200 kHz
Missing or incorrect values are displayed as -999
Navigation data collected by the RV Zeeleeuw from 2009-12-10 09:10:59 to 2009-12-10 17:22:13
                                                                                    Next 1000 lines
Time Latitude Longitude Heading SOG COG Depth
2009-12-10 09:11:08 51°13.662 2°55.955 112.2 1.1 291 8.9
2009-12-10 09:11:14 51°13.663 2°55.952 112.2 1.5 296 8.9
2009-12-10 09:11:19 51°13.664 2°55.948 112.5 1.8 295 9
2009-12-10 09:11:24 51°13.665 2°55.944 112.7 2 297 9.1
2009-12-10 09:11:30 51°13.667 2°55.939 113 2.3 297 -999
2009-12-10 09:11:35 51°13.668 2°55.934 113.1 2.5 298 -999
2009-12-10 09:11:41 51°13.67 2°55.928 113.1 2.7 296 -999
2009-12-10 09:11:47 51°13.672 2°55.921 113.1 2.9 297 -999
2009-12-10 09:11:52 51°13.674 2°55.915 113 3 295 -999
2009-12-10 09:11:57 51°13.676 2°55.909 112.7 3.2 295 -999
2009-12-10 09:12:02 51°13.678 2°55.902 112.4 3.4 294 -999
2009-12-10 09:12:07 51°13.68 2°55.895 112.4 3.6 293 -999
2009-12-10 09:12:12 51°13.682 2°55.887 112.9 3.8 294 -999
2009-12-10 09:12:17 51°13.684 2°55.879 114 4 294 -999
2009-12-10 09:12:23 51°13.687 2°55.869 115 4.1 295 -999
2009-12-10 09:12:27 51°13.689 2°55.862 116.3 4.3 296 -999
2009-12-10 09:12:32 51°13.692 2°55.854 117.6 4.3 298 -999
2009-12-10 09:12:37 51°13.695 2°55.845 118.9 4.4 298 -999
2009-12-10 09:12:43 51°13.699 2°55.835 120 4.4 301 -999
2009-12-10 09:12:47 51°13.701 2°55.829 121.3 4.4 301 -999
2009-12-10 09:12:52 51°13.705 2°55.82 121.8 4.4 303 -999
2009-12-10 09:12:58 51°13.709 2°55.811 122.1 4.4 302 -999
2009-12-10 09:13:03 51°13.712 2°55.803 122.3 4.4 304 -999
2009-12-10 09:13:07 51°13.715 2°55.796 122.9 4.4 303 -999
2009-12-10 09:13:12 51°13.718 2°55.788 123.7 4.4 304 -999
2009-12-10 09:13:18 51°13.722 2°55.778 124.3 4.4 305 -999
2009-12-10 09:13:23 51°13.726 2°55.771 125 4.4 306 -999
2009-12-10 09:13:27 51°13.729 2°55.764 125.9 4.3 306 -999
2009-12-10 09:13:32 51°13.732 2°55.757 127 4.3 307 -999
2009-12-10 09:13:37 51°13.736 2°55.749 128.1 4.3 308 -999
2009-12-10 09:13:43 51°13.741 2°55.74 129.2 4.3 309 -999
2009-12-10 09:13:47 51°13.744 2°55.735 130.4 4.2 310 -999
2009-12-10 09:13:52 51°13.747 2°55.728 131.8 4.2 311 -999
2009-12-10 09:13:57 51°13.751 2°55.721 133 4.2 312 -999
2009-12-10 09:14:02 51°13.755 2°55.714 135 4.2 314 -999
2009-12-10 09:14:07 51°13.759 2°55.708 136.7 4.1 315 -999
2009-12-10 09:14:12 51°13.764 2°55.701 138.6 4.1 317 -999
2009-12-10 09:14:17 51°13.768 2°55.695 140.5 4.2 319 -999
2009-12-10 09:14:22 51°13.772 2°55.689 142.3 4.3 320 -999
2009-12-10 09:14:27 51°13.777 2°55.683 144.1 4.3 323 -999
2009-12-10 09:14:32 51°13.782 2°55.678 145.9 4.4 325 -999
2009-12-10 09:14:38 51°13.788 2°55.671 147.6 4.4 327 -999
2009-12-10 09:14:42 51°13.793 2°55.667 149.5 4.5 328 -999
2009-12-10 09:14:47 51°13.798 2°55.662 151.5 4.6 330 -999
2009-12-10 09:14:52 51°13.804 2°55.657 153.5 4.7 333 -999
2009-12-10 09:14:58 51°13.811 2°55.652 155.5 4.8 335 -999
2009-12-10 09:15:03 51°13.817 2°55.648 157.6 4.8 337 -999
2009-12-10 09:15:07 51°13.822 2°55.645 159.5 4.9 339 -999
2009-12-10 09:15:12 51°13.829 2°55.641 161.2 4.9 341 -999
2009-12-10 09:15:18 51°13.837 2°55.637 163.2 5 343 -999
2009-12-10 09:15:23 51°13.843 2°55.634 164.7 5 344 -999
2009-12-10 09:15:27 51°13.849 2°55.632 166 5 346 -999
2009-12-10 09:15:32 51°13.855 2°55.63 167.3 4.9 348 -999
2009-12-10 09:15:38 51°13.863 2°55.627 168.7 4.8 349 -999
2009-12-10 09:15:43 51°13.869 2°55.626 171.5 4.6 351 -999
2009-12-10 09:15:47 51°13.874 2°55.625 173.7 4.4 354 -999
2009-12-10 09:15:52 51°13.88 2°55.624 175.7 4.1 354 -999
2009-12-10 09:15:57 51°13.885 2°55.624 177.1 4 358 -999
2009-12-10 09:16:03 51°13.891 2°55.623 179.4 3.8 357 -999
2009-12-10 09:16:07 51°13.896 2°55.624 181.5 3.6 1 -999
2009-12-10 09:16:12 51°13.9 2°55.624 183.4 3.5 2 -999
2009-12-10 09:16:17 51°13.905 2°55.625 184.6 3.4 4 -999
2009-12-10 09:16:23 51°13.911 2°55.626 186.7 3.2 7 -999
2009-12-10 09:16:27 51°13.914 2°55.626 188.8 3.1 6 -999
2009-12-10 09:16:32 51°13.918 2°55.627 190.6 2.9 8 -999
2009-12-10 09:16:37 51°13.922 2°55.628 192.2 2.8 11 -999
2009-12-10 09:16:42 51°13.925 2°55.629 193.8 2.7 13 -999
2009-12-10 09:16:47 51°13.929 2°55.631 195.5 2.5 14 -999
2009-12-10 09:16:52 51°13.932 2°55.632 197.2 2.2 15 -999
2009-12-10 09:16:57 51°13.934 2°55.633 198 1.5 16 12.3
2009-12-10 09:17:02 51°13.935 2°55.633 199.5 0.8 14 12.5
2009-12-10 09:17:07 51°13.935 2°55.633 201.8 0.2 349 12.1
2009-12-10 09:17:12 51°13.935 2°55.632 205.9 0.2 222 12.3
2009-12-10 09:17:16 51°13.934 2°55.632 211.4 0.3 242 12.3
2009-12-10 09:17:21 51°13.934 2°55.632 216.6 0.3 192 12.3
2009-12-10 09:17:26 51°13.934 2°55.632 220.8 0.1 66 12.4
2009-12-10 09:17:31 51°13.934 2°55.633 223.9 0.6 80 12.3
2009-12-10 09:17:36 51°13.935 2°55.635 226.3 0.9 65 12.1
2009-12-10 09:17:40 51°13.935 2°55.636 229 1.1 65 12
2009-12-10 09:17:45 51°13.936 2°55.639 231.4 1.3 69 12.3
2009-12-10 09:17:50 51°13.936 2°55.642 232.7 1.3 70 12.2
2009-12-10 09:17:55 51°13.937 2°55.644 233.5 1.2 75 11.8
2009-12-10 09:18:00 51°13.937 2°55.646 233.5 0.6 85 12.1
2009-12-10 09:18:05 51°13.936 2°55.646 232.7 0.7 176 12.1
2009-12-10 09:18:10 51°13.935 2°55.644 233.8 1.1 217 12.2
2009-12-10 09:18:15 51°13.933 2°55.642 238.3 1.3 228 12.3
2009-12-10 09:18:20 51°13.932 2°55.639 243.1 1.7 228 12.1
2009-12-10 09:18:24 51°13.931 2°55.636 247.8 1.8 247 12.4
2009-12-10 09:18:29 51°13.93 2°55.631 253 2.3 248 12.1
2009-12-10 09:18:34 51°13.93 2°55.626 258.7 2.5 266 12
2009-12-10 09:18:39 51°13.93 2°55.619 266.2 3.1 271 12
2009-12-10 09:18:44 51°13.931 2°55.611 274.6 3.4 281 11.8
2009-12-10 09:18:48 51°13.933 2°55.606 284.6 3.7 295 12.5
2009-12-10 09:18:54 51°13.936 2°55.597 294.7 3.9 302 12.6
2009-12-10 09:18:59 51°13.94 2°55.59 304.5 4.1 313 12.6
2009-12-10 09:19:04 51°13.945 2°55.584 314 4.2 320 12.4
2009-12-10 09:19:09 51°13.95 2°55.579 321.9 4.5 326 12.5
2009-12-10 09:19:14 51°13.956 2°55.574 328 4.6 331 12.5
2009-12-10 09:19:18 51°13.96 2°55.57 331.2 4.8 331 13
2009-12-10 09:19:24 51°13.968 2°55.564 332.4 5.3 333 13.2
2009-12-10 09:19:28 51°13.974 2°55.559 331.2 5.8 330 12.5
2009-12-10 09:19:34 51°13.983 2°55.551 329.7 6.3 332 12.5
2009-12-10 09:19:39 51°13.99 2°55.544 329.4 6.5 330 13.3
2009-12-10 09:19:44 51°13.999 2°55.536 329.5 6.8 331 12.5
2009-12-10 09:19:49 51°14.008 2°55.528 330 7.2 331 12.5
2009-12-10 09:19:54 51°14.017 2°55.521 330.4 7.5 332 12.5
2009-12-10 09:19:59 51°14.026 2°55.512 331 7.7 332 12.5
2009-12-10 09:20:04 51°14.036 2°55.504 330.3 7.9 330 12.5
2009-12-10 09:20:09 51°14.046 2°55.495 330.2 8 331 12.6
2009-12-10 09:20:14 51°14.056 2°55.487 330.8 8.3 331 12.6
2009-12-10 09:20:19 51°14.066 2°55.478 330.9 8.4 331 12.4
2009-12-10 09:20:24 51°14.076 2°55.468 329.7 8.6 330 12.4
2009-12-10 09:20:29 51°14.087 2°55.459 329.6 8.7 331 12.5
2009-12-10 09:20:33 51°14.095 2°55.451 330.5 8.7 331 12.6
2009-12-10 09:20:39 51°14.108 2°55.439 330.5 8.9 330 12.5
2009-12-10 09:20:44 51°14.119 2°55.429 328.9 9 328 12.6
2009-12-10 09:20:49 51°14.129 2°55.418 327.8 9 327 12.5
2009-12-10 09:20:54 51°14.14 2°55.407 327.4 9.1 328 12.5
2009-12-10 09:20:58 51°14.148 2°55.398 326 9.2 325 12.6
2009-12-10 09:21:04 51°14.161 2°55.384 325.4 9.3 326 12.2
2009-12-10 09:21:09 51°14.172 2°55.372 324.9 9.4 324 12.6
2009-12-10 09:21:14 51°14.182 2°55.359 323.7 9.5 323 12.6
2009-12-10 09:21:19 51°14.193 2°55.347 323.5 9.6 322 12.4
2009-12-10 09:21:25 51°14.205 2°55.33 322.8 9.6 321 12.4
2009-12-10 09:21:30 51°14.215 2°55.316 320.5 9.7 318 12.4
2009-12-10 09:21:34 51°14.223 2°55.305 318.9 9.8 318 12.2
2009-12-10 09:21:39 51°14.233 2°55.29 318 9.8 317 12.1
2009-12-10 09:21:44 51°14.243 2°55.274 316.5 9.8 315 12.4
2009-12-10 09:21:49 51°14.252 2°55.258 314.7 9.9 313 12.1
2009-12-10 09:21:54 51°14.261 2°55.241 312.3 10.1 311 11.9
2009-12-10 09:21:58 51°14.269 2°55.227 311.2 10.3 311 11.7
2009-12-10 09:22:04 51°14.28 2°55.206 310.3 10.4 309 11.7
2009-12-10 09:22:09 51°14.289 2°55.188 310 10.5 311 11.5
2009-12-10 09:22:14 51°14.299 2°55.17 310.7 10.6 311 11.5
2009-12-10 09:22:19 51°14.308 2°55.153 311.8 10.6 312 11.8
2009-12-10 09:22:24 51°14.318 2°55.134 310.7 10.7 309 12.1
2009-12-10 09:22:29 51°14.327 2°55.116 308.9 10.7 310 11.7
2009-12-10 09:22:34 51°14.337 2°55.098 310.2 10.7 311 12
2009-12-10 09:22:39 51°14.347 2°55.08 311.7 10.8 310 12
2009-12-10 09:22:44 51°14.356 2°55.062 309.7 10.7 307 11.8
2009-12-10 09:22:49 51°14.365 2°55.043 307.7 10.6 308 11.7
2009-12-10 09:22:54 51°14.374 2°55.025 307.9 10.5 309 11.3
2009-12-10 09:22:59 51°14.384 2°55.008 310.6 10.6 312 11.1
2009-12-10 09:23:04 51°14.394 2°54.991 312.6 10.5 312 11.5
2009-12-10 09:23:09 51°14.403 2°54.973 311.9 10.6 311 10.9
2009-12-10 09:23:14 51°14.413 2°54.957 310.9 10.4 313 11.7
2009-12-10 09:23:18 51°14.422 2°54.944 313.6 10.3 318 11.4
2009-12-10 09:23:24 51°14.436 2°54.928 318.3 10.3 323 11.7
2009-12-10 09:23:29 51°14.448 2°54.916 322.9 10.3 329 11.9
2009-12-10 09:23:33 51°14.458 2°54.908 328.2 10.4 333 11.9
2009-12-10 09:23:38 51°14.472 2°54.899 332.7 10.4 337 11.5
2009-12-10 09:23:44 51°14.487 2°54.888 334.6 10.3 337 11.4
2009-12-10 09:23:49 51°14.5 2°54.879 333.7 10.3 336 11.7
2009-12-10 09:23:54 51°14.514 2°54.87 333.4 10.3 338 11.7
2009-12-10 09:23:59 51°14.527 2°54.861 333.2 10.3 336 12
2009-12-10 09:24:04 51°14.54 2°54.851 332.6 10.4 336 11.6
2009-12-10 09:24:09 51°14.553 2°54.841 332.3 10.5 335 11.2
2009-12-10 09:24:14 51°14.566 2°54.831 331.7 10.4 335 11.1
2009-12-10 09:24:19 51°14.579 2°54.821 331.6 10.5 333 11.7
2009-12-10 09:24:24 51°14.592 2°54.811 330.5 10.4 334 10.8
2009-12-10 09:24:29 51°14.604 2°54.801 330.4 10.3 335 11.9
2009-12-10 09:24:34 51°14.618 2°54.792 330.8 10.4 335 11.5
2009-12-10 09:24:39 51°14.63 2°54.78 329.7 10.3 331 11
2009-12-10 09:24:44 51°14.643 2°54.77 329.5 10.3 334 11.5
2009-12-10 09:24:49 51°14.655 2°54.759 329.5 10.5 332 11.1
2009-12-10 09:24:54 51°14.669 2°54.749 330 10.5 333 11
2009-12-10 09:24:59 51°14.681 2°54.738 330.2 10.6 332 11
2009-12-10 09:25:04 51°14.694 2°54.727 329.2 10.6 332 10.9
2009-12-10 09:25:09 51°14.707 2°54.716 329.7 10.6 332 10.8
2009-12-10 09:25:14 51°14.721 2°54.705 330.1 10.6 333 11.8
2009-12-10 09:25:19 51°14.734 2°54.695 330.3 10.7 333 11.7
2009-12-10 09:25:24 51°14.746 2°54.684 329.6 10.5 333 10.5
2009-12-10 09:25:29 51°14.759 2°54.676 329.5 10 337 11.4
2009-12-10 09:25:35 51°14.774 2°54.663 329.3 10 333 -999
2009-12-10 09:25:40 51°14.787 2°54.654 330.4 10 335 10.8
2009-12-10 09:25:45 51°14.799 2°54.643 330.2 10.2 333 11.3
2009-12-10 09:25:50 51°14.812 2°54.633 329.6 10.3 333 11.1
2009-12-10 09:25:54 51°14.822 2°54.624 329 10.4 331 11.4
2009-12-10 09:25:59 51°14.835 2°54.614 329.1 10.3 333 10.7
2009-12-10 09:26:04 51°14.847 2°54.605 329.6 10 335 -999
2009-12-10 09:26:10 51°14.861 2°54.593 330.3 9.8 332 10.6
2009-12-10 09:26:15 51°14.873 2°54.582 328.7 9.9 329 11.2
2009-12-10 09:26:20 51°14.885 2°54.573 328.4 9.6 333 10.8
2009-12-10 09:26:25 51°14.897 2°54.562 329.6 9.7 333 11.6
2009-12-10 09:26:30 51°14.909 2°54.553 328.9 9.8 334 12.1
2009-12-10 09:26:35 51°14.922 2°54.543 329.1 9.9 333 11.1
2009-12-10 09:26:39 51°14.931 2°54.535 329.8 10 333 11.3
2009-12-10 09:26:44 51°14.944 2°54.525 329.7 10.3 332 11.6
2009-12-10 09:26:49 51°14.956 2°54.514 329.3 10 332 10.8
2009-12-10 09:26:54 51°14.969 2°54.504 329.6 10.1 333 10.9
2009-12-10 09:26:59 51°14.981 2°54.494 329.6 9.9 331 12.2
2009-12-10 09:27:04 51°14.994 2°54.483 328.6 10.2 332 11.7
2009-12-10 09:27:09 51°15.006 2°54.472 328.9 10.3 332 11.9
2009-12-10 09:27:14 51°15.019 2°54.462 328.9 10.4 332 11.5
2009-12-10 09:27:19 51°15.032 2°54.45 328.9 10.4 331 12
2009-12-10 09:27:24 51°15.045 2°54.439 328.7 10.5 332 12.3
2009-12-10 09:27:29 51°15.058 2°54.428 329.2 10.6 332 11.6
2009-12-10 09:27:34 51°15.071 2°54.417 329.5 10.6 333 11.4
2009-12-10 09:27:39 51°15.083 2°54.406 329 10.6 330 11.8
2009-12-10 09:27:44 51°15.097 2°54.395 328.3 10.8 332 11.6
2009-12-10 09:27:49 51°15.109 2°54.384 328.4 10.5 331 11.4
2009-12-10 09:27:54 51°15.122 2°54.373 329.3 10.5 332 11.8
2009-12-10 09:27:59 51°15.135 2°54.362 328.8 10.5 330 12.2
2009-12-10 09:28:04 51°15.148 2°54.35 327.6 10.6 331 11.6
2009-12-10 09:28:09 51°15.161 2°54.339 328.8 10.6 332 12
2009-12-10 09:28:14 51°15.174 2°54.328 328.9 10.6 331 11.6
2009-12-10 09:28:19 51°15.186 2°54.317 328.8 10.6 330 11.3
2009-12-10 09:28:24 51°15.199 2°54.305 329 10.7 331 11.8
2009-12-10 09:28:29 51°15.212 2°54.294 329.2 10.7 331 11.7
2009-12-10 09:28:34 51°15.225 2°54.282 329.1 10.8 331 11.5
2009-12-10 09:28:39 51°15.239 2°54.271 329.6 10.7 332 11.4
2009-12-10 09:28:44 51°15.252 2°54.26 328.7 10.6 331 11
2009-12-10 09:28:48 51°15.262 2°54.251 329.6 10.6 332 10.8
2009-12-10 09:28:54 51°15.277 2°54.236 329.5 10.7 330 10.7
2009-12-10 09:28:59 51°15.29 2°54.225 329.3 10.6 333 10.9
2009-12-10 09:29:04 51°15.303 2°54.213 330 10.7 330 10.8
2009-12-10 09:29:09 51°15.316 2°54.201 328.8 10.7 331 10.4
2009-12-10 09:29:14 51°15.329 2°54.19 329.1 10.6 332 10.9
2009-12-10 09:29:19 51°15.342 2°54.178 329.2 10.7 331 11.1
2009-12-10 09:29:24 51°15.354 2°54.167 329.2 10.4 332 10.4
2009-12-10 09:29:29 51°15.367 2°54.156 330.3 10.5 332 11
2009-12-10 09:29:34 51°15.38 2°54.144 329.7 10.4 330 10.7
2009-12-10 09:29:39 51°15.392 2°54.133 329 10.4 332 11.7
2009-12-10 09:29:44 51°15.405 2°54.122 329.3 10.2 331 10.6
2009-12-10 09:29:49 51°15.417 2°54.112 329.5 10.2 331 11.7
2009-12-10 09:29:54 51°15.43 2°54.101 328.9 10.2 332 11.6
2009-12-10 09:29:58 51°15.44 2°54.092 329.6 10.3 331 11.4
2009-12-10 09:30:03 51°15.452 2°54.08 329.1 10.4 330 10.9
2009-12-10 09:30:08 51°15.465 2°54.069 328.8 10.4 331 11
2009-12-10 09:30:13 51°15.477 2°54.057 328.9 10.5 330 11.1
2009-12-10 09:30:18 51°15.49 2°54.045 328.8 10.5 330 10.9
2009-12-10 09:30:24 51°15.506 2°54.032 328.9 10.6 330 11.5
2009-12-10 09:30:29 51°15.518 2°54.02 328.6 10.7 330 11.3
2009-12-10 09:30:34 51°15.531 2°54.008 328.4 10.5 330 11
2009-12-10 09:30:38 51°15.541 2°53.999 329.1 10.6 331 11.8
2009-12-10 09:30:43 51°15.554 2°53.988 329 10.7 330 12.2
2009-12-10 09:30:48 51°15.567 2°53.976 329 10.5 331 11.5
2009-12-10 09:30:54 51°15.582 2°53.962 329.2 10.6 330 11.6
2009-12-10 09:30:59 51°15.595 2°53.95 328.8 10.7 330 11.9
2009-12-10 09:31:03 51°15.605 2°53.94 328.6 10.7 330 11.9
2009-12-10 09:31:08 51°15.618 2°53.928 328.5 10.8 331 12.1
2009-12-10 09:31:14 51°15.634 2°53.915 329.6 10.7 331 11.9
2009-12-10 09:31:19 51°15.647 2°53.903 329.5 10.8 332 12.4
2009-12-10 09:31:23 51°15.657 2°53.894 329.8 10.8 333 12.6
2009-12-10 09:31:29 51°15.673 2°53.881 329.7 10.6 331 11.9
2009-12-10 09:31:34 51°15.686 2°53.87 329.2 10.6 331 12.5
2009-12-10 09:31:39 51°15.7 2°53.859 330.2 10.7 333 12.6
2009-12-10 09:31:43 51°15.71 2°53.85 330 10.4 332 11.7
2009-12-10 09:31:49 51°15.725 2°53.838 329.7 10.3 333 12.1
2009-12-10 09:31:54 51°15.738 2°53.826 330.2 10.4 331 12.9
2009-12-10 09:31:59 51°15.75 2°53.816 330 10.4 332 12.1
2009-12-10 09:32:04 51°15.763 2°53.805 329.8 10.5 330 12.4
2009-12-10 09:32:08 51°15.773 2°53.796 329.5 10.4 332 12.2
2009-12-10 09:32:14 51°15.789 2°53.783 329.5 10.5 332 12.5
2009-12-10 09:32:18 51°15.799 2°53.774 329.8 10.5 330 12.6
2009-12-10 09:32:23 51°15.812 2°53.763 329.5 10.5 331 12.7
2009-12-10 09:32:29 51°15.827 2°53.749 329.6 10.6 331 12.7
2009-12-10 09:32:34 51°15.84 2°53.738 329.6 10.5 332 12.4
2009-12-10 09:32:38 51°15.85 2°53.729 330 10.6 332 12.6
2009-12-10 09:32:43 51°15.863 2°53.718 329.9 10.7 332 12.6
2009-12-10 09:32:48 51°15.877 2°53.708 330 10.8 333 13.1
2009-12-10 09:32:54 51°15.892 2°53.694 329.6 10.6 331 12.4
2009-12-10 09:32:59 51°15.905 2°53.683 329.2 10.5 331 12.2
2009-12-10 09:33:03 51°15.915 2°53.675 329.5 10.5 332 12.2
2009-12-10 09:33:08 51°15.928 2°53.664 329.8 10.4 332 12.7
2009-12-10 09:33:14 51°15.944 2°53.651 330.2 10.4 331 12.4
2009-12-10 09:33:19 51°15.956 2°53.64 329.2 10.5 332 13
2009-12-10 09:33:23 51°15.967 2°53.631 329.9 10.5 333 13.2
2009-12-10 09:33:28 51°15.98 2°53.62 330 10.6 331 12.7
2009-12-10 09:33:33 51°15.993 2°53.609 329.1 10.6 331 12.7
2009-12-10 09:33:39 51°16.008 2°53.596 329.4 10.4 332 12.5
2009-12-10 09:33:44 51°16.021 2°53.585 329.2 10.3 332 -999
2009-12-10 09:33:49 51°16.034 2°53.575 329.7 10 332 -999
2009-12-10 09:33:54 51°16.045 2°53.564 329.4 10.2 330 13.3
2009-12-10 09:33:59 51°16.058 2°53.553 329 10.3 332 13.2
2009-12-10 09:34:04 51°16.071 2°53.542 329.5 10.4 332 13.1
2009-12-10 09:34:09 51°16.084 2°53.531 329.4 10.5 331 13
2009-12-10 09:34:14 51°16.096 2°53.52 329.2 10.2 332 12.3
2009-12-10 09:34:18 51°16.106 2°53.512 329.4 10.2 333 12.7
2009-12-10 09:34:24 51°16.121 2°53.5 330 10.2 332 13.5
2009-12-10 09:34:29 51°16.133 2°53.489 329.2 10 331 12.7
2009-12-10 09:34:34 51°16.146 2°53.478 329 10.3 332 13.3
2009-12-10 09:34:38 51°16.156 2°53.469 329.4 10.1 331 12.5
2009-12-10 09:34:43 51°16.168 2°53.459 328.9 10.2 332 13.6
2009-12-10 09:34:49 51°16.183 2°53.446 328.9 10.2 332 13
2009-12-10 09:34:54 51°16.196 2°53.436 329.1 10 333 12.7
2009-12-10 09:34:59 51°16.208 2°53.426 329.5 10.1 333 -999
2009-12-10 09:35:04 51°16.221 2°53.415 329.7 10.2 333 13
2009-12-10 09:35:09 51°16.233 2°53.404 329.1 10.3 331 12.9
2009-12-10 09:35:14 51°16.246 2°53.393 329.1 10.5 333 13.4
2009-12-10 09:35:19 51°16.259 2°53.382 329.9 10.5 332 13.1
2009-12-10 09:35:23 51°16.269 2°53.373 329 10.5 330 13.3
2009-12-10 09:35:29 51°16.284 2°53.359 328.7 10.7 330 13.4
2009-12-10 09:35:34 51°16.298 2°53.348 328.8 10.7 331 13.2
2009-12-10 09:35:39 51°16.311 2°53.336 329.2 10.8 331 13.2
2009-12-10 09:35:43 51°16.321 2°53.328 330 10.8 333 13.3
2009-12-10 09:35:48 51°16.334 2°53.315 329.2 10.9 329 13.4
2009-12-10 09:35:53 51°16.348 2°53.303 328.2 10.9 331 13.3
2009-12-10 09:35:59 51°16.364 2°53.289 328.2 10.9 331 13.3
2009-12-10 09:36:03 51°16.374 2°53.28 328.8 10.9 331 13
2009-12-10 09:36:09 51°16.39 2°53.266 328.7 10.9 331 13.7
2009-12-10 09:36:13 51°16.4 2°53.257 328.7 10.8 332 13.5
2009-12-10 09:36:18 51°16.414 2°53.246 328.9 10.7 330 13.2
2009-12-10 09:36:23 51°16.427 2°53.234 328.4 10.5 331 12.7
2009-12-10 09:36:29 51°16.442 2°53.221 328.9 10.6 332 13.6
2009-12-10 09:36:33 51°16.452 2°53.211 329.2 10.7 331 13.4
2009-12-10 09:36:38 51°16.466 2°53.2 328.9 10.7 331 13.1
2009-12-10 09:36:43 51°16.479 2°53.188 329 10.7 331 12.8
2009-12-10 09:36:49 51°16.494 2°53.175 329.1 10.8 332 13
2009-12-10 09:36:54 51°16.508 2°53.164 329.7 10.8 331 13.2
2009-12-10 09:36:59 51°16.521 2°53.152 328.9 10.9 332 13
2009-12-10 09:37:03 51°16.532 2°53.143 329.4 10.7 333 12.6
2009-12-10 09:37:09 51°16.547 2°53.13 329.6 10.8 333 13.9
2009-12-10 09:37:14 51°16.561 2°53.121 330.3 10.3 335 -999
2009-12-10 09:37:19 51°16.573 2°53.11 330.1 10.4 332 12.9
2009-12-10 09:37:23 51°16.583 2°53.101 328.9 10.5 332 13.1
2009-12-10 09:37:28 51°16.597 2°53.091 329.5 10.7 333 13.1
2009-12-10 09:37:34 51°16.612 2°53.077 329.3 10.5 332 12.4
2009-12-10 09:37:38 51°16.622 2°53.069 329.5 10.7 334 13.4
2009-12-10 09:37:43 51°16.635 2°53.058 329.5 10.6 333 13
2009-12-10 09:37:48 51°16.649 2°53.048 329.6 10.4 334 12.2
2009-12-10 09:37:54 51°16.664 2°53.035 329.8 10.5 333 12.7
2009-12-10 09:37:59 51°16.677 2°53.024 329.1 10.3 332 12.1
2009-12-10 09:38:03 51°16.687 2°53.016 329.7 10.4 333 12.9
2009-12-10 09:38:09 51°16.702 2°53.003 329.6 10.5 332 13.2
2009-12-10 09:38:14 51°16.715 2°52.992 328.9 10.1 333 11.8
2009-12-10 09:38:19 51°16.727 2°52.982 329.2 10.2 332 12
2009-12-10 09:38:23 51°16.737 2°52.974 329.4 10.3 332 12.8
2009-12-10 09:38:28 51°16.75 2°52.963 329.4 10.3 332 12.1
2009-12-10 09:38:34 51°16.765 2°52.951 329.5 10.1 333 11.2
2009-12-10 09:38:39 51°16.778 2°52.94 329.7 10.3 332 11.7
2009-12-10 09:38:43 51°16.788 2°52.932 329.9 10.5 332 11.1
2009-12-10 09:38:48 51°16.801 2°52.921 329.3 10.6 332 11.1
2009-12-10 09:38:54 51°16.817 2°52.908 329.3 10.7 333 10.9
2009-12-10 09:38:58 51°16.827 2°52.899 329.3 10.7 331 10.5
2009-12-10 09:39:03 51°16.84 2°52.887 329.3 10.6 333 10.3
2009-12-10 09:39:09 51°16.856 2°52.875 329.6 10.6 333 10.8
2009-12-10 09:39:14 51°16.869 2°52.865 330.4 10.8 336 11.4
2009-12-10 09:39:19 51°16.882 2°52.854 329.4 10.3 334 -999
2009-12-10 09:39:25 51°16.897 2°52.842 330.8 10.4 333 -999
2009-12-10 09:39:30 51°16.91 2°52.831 329 10.2 332 10.2
2009-12-10 09:39:35 51°16.923 2°52.821 329.3 10.2 333 10.2
2009-12-10 09:39:39 51°16.933 2°52.812 329.6 10.3 331 10.1
2009-12-10 09:39:44 51°16.945 2°52.801 329.3 10.4 332 11
2009-12-10 09:39:49 51°16.958 2°52.79 329.1 10.3 332 10.6
2009-12-10 09:39:54 51°16.971 2°52.78 329.3 10.4 333 10
2009-12-10 09:39:59 51°16.984 2°52.77 329.6 10.5 334 11
2009-12-10 09:40:03 51°16.995 2°52.761 329.9 10.5 332 10.9
2009-12-10 09:40:08 51°17.007 2°52.75 329.1 10.7 332 11.7
2009-12-10 09:40:14 51°17.023 2°52.737 328.9 10.4 332 10.7
2009-12-10 09:40:19 51°17.036 2°52.727 328.8 10.1 333 11.2
2009-12-10 09:40:23 51°17.046 2°52.718 329.4 10.3 332 11.7
2009-12-10 09:40:28 51°17.058 2°52.707 328.5 10.3 331 11.2
2009-12-10 09:40:33 51°17.071 2°52.697 328.7 10.3 333 10.9
2009-12-10 09:40:39 51°17.086 2°52.683 329.4 10.5 331 11.3
2009-12-10 09:40:43 51°17.097 2°52.675 328.7 10.7 333 11.3
2009-12-10 09:40:48 51°17.11 2°52.664 329 10.3 334 10.4
2009-12-10 09:40:54 51°17.125 2°52.653 330 10.4 334 10.8
2009-12-10 09:40:59 51°17.138 2°52.641 329.9 10.4 329 10.6
2009-12-10 09:41:04 51°17.15 2°52.63 328.5 10.5 333 10.7
2009-12-10 09:41:09 51°17.163 2°52.62 329.3 10.6 332 11.3
2009-12-10 09:41:13 51°17.174 2°52.611 329.5 10.7 336 11.2
2009-12-10 09:41:18 51°17.188 2°52.603 333.3 10.8 338 11.3
2009-12-10 09:41:23 51°17.202 2°52.595 334.8 10.7 342 11
2009-12-10 09:41:29 51°17.219 2°52.589 340.1 10.6 348 10.9
2009-12-10 09:41:34 51°17.234 2°52.584 345.6 10.7 350 11
2009-12-10 09:41:38 51°17.245 2°52.581 347.3 10.9 350 11.3
2009-12-10 09:41:43 51°17.261 2°52.579 349.7 11 355 11.6
2009-12-10 09:41:49 51°17.279 2°52.576 351 11 356 11.2
2009-12-10 09:41:54 51°17.294 2°52.574 353.1 10.9 355 10.7
2009-12-10 09:41:59 51°17.31 2°52.573 353.7 11.1 358 10.9
2009-12-10 09:42:03 51°17.322 2°52.572 355 11.1 355 10.9
2009-12-10 09:42:08 51°17.337 2°52.571 356.1 11.2 359 11
2009-12-10 09:42:14 51°17.356 2°52.57 356.7 11.2 356 11.6
2009-12-10 09:42:19 51°17.372 2°52.57 356.4 11.3 1 11.2
2009-12-10 09:42:23 51°17.384 2°52.571 358.1 11.2 358 10.5
2009-12-10 09:42:28 51°17.4 2°52.57 357.4 11 3 11.2
2009-12-10 09:42:34 51°17.418 2°52.571 359.4 11.1 359 11.8
2009-12-10 09:42:39 51°17.433 2°52.571 359 11.1 1 11.2
2009-12-10 09:42:43 51°17.446 2°52.572 359.2 11.1 2 11.4
2009-12-10 09:42:48 51°17.461 2°52.573 359.5 10.9 3 10.8
2009-12-10 09:42:53 51°17.476 2°52.574 0.7 11 2 11.4
2009-12-10 09:42:59 51°17.494 2°52.574 359.4 11 -999 11.4
2009-12-10 09:43:03 51°17.507 2°52.575 0.2 11 1 11.5
2009-12-10 09:43:09 51°17.525 2°52.575 358.4 11.1 2 11.4
2009-12-10 09:43:13 51°17.537 2°52.576 359.8 11.1 -999 11.5
2009-12-10 09:43:18 51°17.553 2°52.576 359.6 11.3 4 11.4
2009-12-10 09:43:23 51°17.568 2°52.577 359.7 11.2 358 11.4
2009-12-10 09:43:29 51°17.587 2°52.578 359.4 11.3 5 11.1
2009-12-10 09:43:34 51°17.602 2°52.577 -999 11.1 357 11.2
2009-12-10 09:43:38 51°17.615 2°52.578 359.2 11.3 4 11.7
2009-12-10 09:43:43 51°17.631 2°52.578 359.4 11.1 358 11.2
2009-12-10 09:43:49 51°17.649 2°52.578 359.3 11.2 3 11.6
2009-12-10 09:43:54 51°17.665 2°52.578 359.6 11.1 1 11.6
2009-12-10 09:43:59 51°17.68 2°52.578 359.4 11 -999 11.8
2009-12-10 09:44:03 51°17.692 2°52.581 359.5 11.1 7 13.1
2009-12-10 09:44:10 51°17.712 2°52.583 358.8 10.2 2 -999
2009-12-10 09:44:15 51°17.726 2°52.584 1.2 10.1 4 -999
2009-12-10 09:44:20 51°17.741 2°52.585 0.8 10.4 -999 11.4
2009-12-10 09:44:25 51°17.755 2°52.586 0.1 10.6 4 11.1
2009-12-10 09:44:30 51°17.77 2°52.587 359.6 10.6 3 11.2
2009-12-10 09:44:35 51°17.785 2°52.589 1.1 10.6 3 12.5
2009-12-10 09:44:40 51°17.799 2°52.589 0.1 10.5 2 11.6
2009-12-10 09:44:45 51°17.814 2°52.591 0.9 10.6 5 11.2
2009-12-10 09:44:49 51°17.826 2°52.591 1.8 10.7 -999 11.5
2009-12-10 09:44:54 51°17.841 2°52.592 0.1 10.9 1 11.4
2009-12-10 09:44:59 51°17.856 2°52.592 359.3 10.9 1 11.3
2009-12-10 09:45:04 51°17.871 2°52.593 359.1 11 2 11.4
2009-12-10 09:45:08 51°17.883 2°52.594 0.3 11.1 359 11.3
2009-12-10 09:45:14 51°17.902 2°52.595 359.3 11 6 11
2009-12-10 09:45:19 51°17.916 2°52.598 2 10.8 2 11.5
2009-12-10 09:45:23 51°17.928 2°52.598 1.1 11 6 12.2
2009-12-10 09:45:29 51°17.947 2°52.599 2.4 10.9 359 11.6
2009-12-10 09:45:34 51°17.962 2°52.6 359.5 10.7 2 10.8
2009-12-10 09:45:38 51°17.974 2°52.602 359.8 10.7 4 11.5
2009-12-10 09:45:43 51°17.989 2°52.603 1.3 10.9 3 12.1
2009-12-10 09:45:49 51°18.007 2°52.604 0.3 10.9 2 11.5
2009-12-10 09:45:54 51°18.022 2°52.607 1.5 10.9 7 11.5
2009-12-10 09:45:58 51°18.034 2°52.609 3.7 10.9 7 11.2
2009-12-10 09:46:03 51°18.05 2°52.614 6.7 10.9 9 11.2
2009-12-10 09:46:09 51°18.067 2°52.62 8.5 10.9 14 11.4
2009-12-10 09:46:14 51°18.082 2°52.626 11.4 10.8 14 11.7
2009-12-10 09:46:19 51°18.097 2°52.632 13.2 11 15 11.9
2009-12-10 09:46:23 51°18.108 2°52.64 16.8 11.1 22 11.9
2009-12-10 09:46:28 51°18.123 2°52.647 17.5 11 17 11.6
2009-12-10 09:46:34 51°18.139 2°52.661 19.7 11.3 27 12.3
2009-12-10 09:46:39 51°18.154 2°52.67 22.6 11.2 22 11.9
2009-12-10 09:46:43 51°18.165 2°52.68 24.8 11.1 32 11.8
2009-12-10 09:46:48 51°18.178 2°52.691 26.9 11.3 27 11.7
2009-12-10 09:46:54 51°18.194 2°52.708 29.6 11.3 32 12
2009-12-10 09:46:59 51°18.208 2°52.719 28.8 11.2 28 12.1
2009-12-10 09:47:03 51°18.218 2°52.733 32.2 11.4 39 12.2
2009-12-10 09:47:08 51°18.232 2°52.744 33.2 11.4 31 11.9
2009-12-10 09:47:13 51°18.243 2°52.761 34.5 11.2 38 11.7
2009-12-10 09:47:19 51°18.258 2°52.779 36 11.3 42 12
2009-12-10 09:47:23 51°18.267 2°52.793 41.1 11.4 43 11.7
2009-12-10 09:47:29 51°18.28 2°52.815 45.1 11.2 48 12.3
2009-12-10 09:47:33 51°18.288 2°52.83 45.4 11.3 51 12.4
2009-12-10 09:47:39 51°18.3 2°52.854 50.8 11.5 51 11.3
2009-12-10 09:47:43 51°18.307 2°52.87 50.3 11.3 51 12
2009-12-10 09:47:49 51°18.317 2°52.896 52.8 11.3 61 12.1
2009-12-10 09:47:54 51°18.326 2°52.916 60 11.2 56 12.5
2009-12-10 09:47:58 51°18.332 2°52.934 58.4 11.3 63 12.1
2009-12-10 09:48:03 51°18.338 2°52.957 64.2 11.3 63 12.3
2009-12-10 09:48:09 51°18.346 2°52.983 64.1 11 68 11.9
2009-12-10 09:48:14 51°18.351 2°53.007 70.6 11.2 69 12.7
2009-12-10 09:48:19 51°18.357 2°53.029 67.2 10.9 70 4.7
2009-12-10 09:48:23 51°18.358 2°53.049 75.6 11 75 12.8
2009-12-10 09:48:29 51°18.366 2°53.075 71.2 11.1 68 12.1
2009-12-10 09:48:34 51°18.37 2°53.1 73.3 11.4 75 12.2
2009-12-10 09:48:39 51°18.376 2°53.122 71.6 11.2 67 12.1
2009-12-10 09:48:43 51°18.378 2°53.142 74.1 11.4 77 12.3
2009-12-10 09:48:49 51°18.386 2°53.169 72.7 11.4 65 12.2
2009-12-10 09:48:54 51°18.39 2°53.193 71.3 11.2 75 11.9
2009-12-10 09:48:59 51°18.394 2°53.217 73.9 11.2 71 12.5
2009-12-10 09:49:03 51°18.4 2°53.234 68.3 11 65 11.9
2009-12-10 09:49:08 51°18.403 2°53.258 72.3 11.4 76 12.4
2009-12-10 09:49:13 51°18.41 2°53.28 71.2 11.3 61 12.2
2009-12-10 09:49:19 51°18.416 2°53.308 68.6 11.1 73 12.2
2009-12-10 09:49:23 51°18.422 2°53.326 70.5 11.4 63 11.8
2009-12-10 09:49:29 51°18.429 2°53.355 67.8 11.3 68 12.4
2009-12-10 09:49:34 51°18.436 2°53.376 65.8 10.9 64 12.1
2009-12-10 09:49:39 51°18.441 2°53.4 69.6 11.3 71 12.5
2009-12-10 09:49:43 51°18.449 2°53.417 66.4 11.6 59 12.1
2009-12-10 09:49:49 51°18.456 2°53.445 65.4 11.1 66 12.3
2009-12-10 09:49:54 51°18.462 2°53.467 65.2 11 67 12.1
2009-12-10 09:49:59 51°18.469 2°53.49 67.4 11.4 62 12.4
2009-12-10 09:50:04 51°18.478 2°53.511 61.8 11.3 60 11.9
2009-12-10 09:50:08 51°18.481 2°53.53 66.1 11.1 68 12.2
2009-12-10 09:50:14 51°18.492 2°53.555 64.4 11.1 58 12.2
2009-12-10 09:50:18 51°18.497 2°53.573 62 11.4 64 12.2
2009-12-10 09:50:24 51°18.506 2°53.6 63.9 11.4 63 12.4
2009-12-10 09:50:28 51°18.513 2°53.616 62.7 11.1 59 12
2009-12-10 09:50:34 51°18.521 2°53.644 64 11.5 65 12.5
2009-12-10 09:50:39 51°18.53 2°53.666 61.7 11.4 58 11.9
2009-12-10 09:50:43 51°18.534 2°53.686 66.1 11.6 68 12.4
2009-12-10 09:50:48 51°18.543 2°53.706 62 11.4 53 12
2009-12-10 09:50:54 51°18.551 2°53.733 61.1 11.2 65 11.8
2009-12-10 09:50:59 51°18.559 2°53.755 62.7 11.5 63 12.4
2009-12-10 09:51:03 51°18.566 2°53.771 61 11.2 56 11.8
2009-12-10 09:51:08 51°18.571 2°53.795 62.4 11.2 67 12.6
2009-12-10 09:51:14 51°18.583 2°53.818 60.2 11.1 52 -999
2009-12-10 09:51:19 51°18.589 2°53.842 60.4 11.6 67 12.3
2009-12-10 09:51:24 51°18.599 2°53.86 59.9 11.2 51 12.1
2009-12-10 09:51:28 51°18.603 2°53.879 59.6 11.1 66 11.9
2009-12-10 09:51:33 51°18.611 2°53.901 63.5 11.3 58 12
2009-12-10 09:51:39 51°18.621 2°53.925 59.7 11.1 57 12.3
2009-12-10 09:51:44 51°18.628 2°53.947 59.9 10.9 64 12.6
2009-12-10 09:51:48 51°18.635 2°53.964 62.1 11.2 60 12.2
2009-12-10 09:51:53 51°18.643 2°53.984 60.3 11.2 56 12
2009-12-10 09:51:59 51°18.652 2°54.01 59.2 11.2 62 11.9
2009-12-10 09:52:03 51°18.657 2°54.028 62.2 11.1 59 12.6
2009-12-10 09:52:08 51°18.667 2°54.048 58.2 11.2 62 12
2009-12-10 09:52:13 51°18.672 2°54.071 64.3 11.2 57 12.3
2009-12-10 09:52:19 51°18.684 2°54.094 57 10.9 57 12
2009-12-10 09:52:23 51°18.689 2°54.113 60.1 11.2 60 12.1
2009-12-10 09:52:28 51°18.698 2°54.134 60.5 11.3 61 12.6
2009-12-10 09:52:34 51°18.708 2°54.159 60.1 11.1 56 11.8
2009-12-10 09:52:39 51°18.715 2°54.181 61.1 11.3 64 12
2009-12-10 09:52:43 51°18.721 2°54.198 62.9 11.3 57 12.1
2009-12-10 09:52:49 51°18.732 2°54.223 59.2 11.2 59 12.6
2009-12-10 09:52:54 51°18.739 2°54.244 60.1 11.1 61 12
2009-12-10 09:52:59 51°18.747 2°54.267 62.9 11.5 60 12.3
2009-12-10 09:53:03 51°18.755 2°54.282 57.5 11.1 52 12.5
2009-12-10 09:53:09 51°18.764 2°54.308 58.2 11.2 65 12.3
2009-12-10 09:53:14 51°18.773 2°54.327 60.2 11.3 51 11.9
2009-12-10 09:53:19 51°18.781 2°54.349 55.7 11.3 60 11.8
2009-12-10 09:53:23 51°18.787 2°54.366 60.3 11.1 53 11.9
2009-12-10 09:53:28 51°18.796 2°54.386 55.4 11.2 59 12.3
2009-12-10 09:53:34 51°18.807 2°54.41 56.5 11.2 53 12.4
2009-12-10 09:53:39 51°18.814 2°54.432 58.8 11.2 64 12.1
2009-12-10 09:53:43 51°18.821 2°54.449 60 11.2 51 12.4
2009-12-10 09:53:48 51°18.831 2°54.468 54.8 10.9 56 11.8
2009-12-10 09:53:53 51°18.837 2°54.491 60 11.2 63 12.7
2009-12-10 09:53:59 51°18.848 2°54.513 57.4 11 53 11.9
2009-12-10 09:54:03 51°18.853 2°54.531 59.3 10.9 60 12.6
2009-12-10 09:54:08 51°18.863 2°54.55 56.2 11 57 12.4
2009-12-10 09:54:13 51°18.869 2°54.573 60.2 11.2 59 12.5
2009-12-10 09:54:19 51°18.879 2°54.598 59.4 11.1 62 12.3
2009-12-10 09:54:23 51°18.885 2°54.615 62.5 11.2 59 12.3
2009-12-10 09:54:28 51°18.893 2°54.636 61.5 11.2 64 12.6
2009-12-10 09:54:33 51°18.899 2°54.659 64.1 11.2 62 12.3
2009-12-10 09:54:39 51°18.907 2°54.686 65.1 11.2 64 12.7
2009-12-10 09:54:43 51°18.914 2°54.702 62.2 11 63 11.8
2009-12-10 09:54:49 51°18.921 2°54.73 67.6 11.1 66 12.5
2009-12-10 09:54:54 51°18.93 2°54.75 63 11 60 12.2
2009-12-10 09:54:58 51°18.933 2°54.77 66.2 11.4 69 12.3
2009-12-10 09:55:03 51°18.941 2°54.791 65.7 11.2 61 12.1
2009-12-10 09:55:08 51°18.947 2°54.815 66.6 11.5 71 12.4
2009-12-10 09:55:14 51°18.957 2°54.84 65.8 11.2 56 12.3
2009-12-10 09:55:19 51°18.961 2°54.865 63.7 11.6 73 12.2
2009-12-10 09:55:23 51°18.966 2°54.882 68.7 11.3 59 12.1
2009-12-10 09:55:28 51°18.973 2°54.905 64.4 11.3 72 12.5
2009-12-10 09:55:34 51°18.982 2°54.931 67.5 11.3 59 11.9
2009-12-10 09:55:39 51°18.986 2°54.956 67 11.3 74 12.7
2009-12-10 09:55:43 51°18.993 2°54.972 67.6 11.2 60 12
2009-12-10 09:55:48 51°18.998 2°54.997 68.8 11.4 72 12.4
2009-12-10 09:55:54 51°19.007 2°55.022 65.6 11.1 58 11.9
2009-12-10 09:55:59 51°19.011 2°55.046 67.4 11.5 73 12.4
2009-12-10 09:56:04 51°19.019 2°55.068 67.3 11.3 58 12.1
2009-12-10 09:56:08 51°19.023 2°55.086 66.4 11.1 73 12
2009-12-10 09:56:13 51°19.029 2°55.109 69 11.1 61 12.3
2009-12-10 09:56:19 51°19.038 2°55.135 64.4 11 68 11.7
2009-12-10 09:56:24 51°19.044 2°55.157 69 11.1 62 12.2
2009-12-10 09:56:28 51°19.05 2°55.174 62.6 10.9 63 12.6
2009-12-10 09:56:34 51°19.057 2°55.201 65 11.1 68 12.2
2009-12-10 09:56:38 51°19.063 2°55.218 67 11 59 12.2
2009-12-10 09:56:43 51°19.072 2°55.238 60.5 11 61 12.1
2009-12-10 09:56:49 51°19.08 2°55.265 63.4 11.2 63 12.4
2009-12-10 09:56:54 51°19.088 2°55.287 62.5 11.2 63 11.9
2009-12-10 09:56:58 51°19.092 2°55.305 66.4 11 62 12.1
2009-12-10 09:57:03 51°19.101 2°55.326 62.5 11.2 66 11.9
2009-12-10 09:57:09 51°19.108 2°55.353 68 11.2 61 12.1
2009-12-10 09:57:14 51°19.115 2°55.375 62.5 10.8 65 12.3
2009-12-10 09:57:18 51°19.121 2°55.392 65.1 11.1 61 11.9
2009-12-10 09:57:23 51°19.127 2°55.415 66.2 11.5 68 12.4
2009-12-10 09:57:29 51°19.137 2°55.44 63.6 11.2 57 11.9
2009-12-10 09:57:34 51°19.142 2°55.465 66.6 11.4 71 12.6
2009-12-10 09:57:39 51°19.151 2°55.485 64.3 11.2 55 11.9
2009-12-10 09:57:43 51°19.155 2°55.503 62.9 11.1 69 12.3
2009-12-10 09:57:48 51°19.163 2°55.524 65.3 11.1 60 12.2
2009-12-10 09:57:54 51°19.169 2°55.552 66.4 11.1 70 12.4
2009-12-10 09:57:59 51°19.176 2°55.574 65.4 11.1 65 12.3
2009-12-10 09:58:03 51°19.179 2°55.593 70.4 11.3 73 12.1
2009-12-10 09:58:08 51°19.185 2°55.616 70 11.2 66 12.3
2009-12-10 09:58:14 51°19.193 2°55.643 68.6 10.9 69 12.1
2009-12-10 09:58:19 51°19.197 2°55.667 72.1 11.1 74 12.2
2009-12-10 09:58:23 51°19.203 2°55.685 70.3 11.2 65 12.2
2009-12-10 09:58:29 51°19.208 2°55.713 69.6 11 75 12.2
2009-12-10 09:58:34 51°19.215 2°55.735 71.4 11.2 65 11.9
2009-12-10 09:58:39 51°19.219 2°55.759 71.9 11.2 73 12.2
2009-12-10 09:58:43 51°19.223 2°55.777 72.7 11.1 75 12
2009-12-10 09:58:49 51°19.229 2°55.805 74.8 11.1 64 12
2009-12-10 09:58:54 51°19.234 2°55.828 68.8 11 74 12.1
2009-12-10 09:58:58 51°19.238 2°55.847 72.6 11.1 68 12.1
2009-12-10 09:59:03 51°19.244 2°55.869 71.3 10.9 70 11.4
2009-12-10 09:59:09 51°19.248 2°55.897 73.8 11.1 72 12.3
2009-12-10 09:59:14 51°19.255 2°55.919 69.2 10.9 67 11.9
2009-12-10 09:59:18 51°19.257 2°55.939 72.8 11.1 76 12.5
2009-12-10 09:59:23 51°19.265 2°55.96 69.1 11.1 65 12.1
2009-12-10 09:59:29 51°19.268 2°55.989 71.9 11.2 75 12
2009-12-10 09:59:34 51°19.275 2°56.01 70.1 10.9 63 11.9
2009-12-10 09:59:39 51°19.279 2°56.035 69.1 11.5 77 11.9
2009-12-10 09:59:43 51°19.283 2°56.053 71.9 11.1 63 12
2009-12-10 09:59:49 51°19.29 2°56.08 67.8 11 76 11.7
2009-12-10 09:59:54 51°19.296 2°56.103 75.1 11.2 65 11.9
2009-12-10 09:59:59 51°19.3 2°56.127 68.9 11 73 12.2
2009-12-10 10:00:03 51°19.305 2°56.144 71 11 67 12
2009-12-10 10:00:08 51°19.309 2°56.168 72.3 11.2 77 12.1
2009-12-10 10:00:14 51°19.317 2°56.194 70 11.2 61 11.5
2009-12-10 10:00:19 51°19.32 2°56.219 69.5 11.1 77 12
2009-12-10 10:00:23 51°19.326 2°56.236 70.5 11 64 11.7
2009-12-10 10:00:28 51°19.329 2°56.26 72.9 11.2 77 12
2009-12-10 10:00:34 51°19.338 2°56.286 70.4 11.1 63 11.7
2009-12-10 10:00:39 51°19.341 2°56.31 71.8 10.9 77 12
2009-12-10 10:00:43 51°19.346 2°56.327 71 11 66 11.6
2009-12-10 10:00:48 51°19.35 2°56.352 71.7 11.2 75 12
2009-12-10 10:00:54 51°19.357 2°56.378 71.6 10.8 66 11.8
2009-12-10 10:00:58 51°19.36 2°56.397 72.8 11.3 78 11.5
2009-12-10 10:01:03 51°19.365 2°56.421 72.6 11.2 65 12.3
2009-12-10 10:01:09 51°19.371 2°56.448 68.6 10.7 75 -999
2009-12-10 10:01:14 51°19.375 2°56.471 77 11.2 67 12.2
2009-12-10 10:01:19 51°19.38 2°56.495 71.2 11.1 74 12.2
2009-12-10 10:01:24 51°19.386 2°56.517 71.8 10.8 69 11.4
2009-12-10 10:01:28 51°19.387 2°56.537 76.3 11.1 78 12.2
2009-12-10 10:01:34 51°19.395 2°56.562 71.9 10.8 64 11.5
2009-12-10 10:01:38 51°19.398 2°56.582 71.9 11.1 78 11.9
2009-12-10 10:01:43 51°19.404 2°56.604 72.6 11.1 65 11.7
2009-12-10 10:01:49 51°19.408 2°56.634 73.8 11.2 78 11.8
2009-12-10 10:01:54 51°19.414 2°56.655 73.9 11.1 64 11.6
2009-12-10 10:01:58 51°19.418 2°56.674 69.8 10.9 75 11.7
2009-12-10 10:02:03 51°19.422 2°56.697 73.6 11 70 11.5
2009-12-10 10:02:09 51°19.429 2°56.725 71.6 11.1 69 11.7
2009-12-10 10:02:14 51°19.433 2°56.748 71.5 11.2 75 11.6
2009-12-10 10:02:19 51°19.439 2°56.771 73.3 11.1 65 11.7
2009-12-10 10:02:23 51°19.443 2°56.79 69.4 11.3 78 11.4
2009-12-10 10:02:29 51°19.448 2°56.818 74.7 10.9 65 12.1
2009-12-10 10:02:34 51°19.454 2°56.839 67.9 10.8 75 5
2009-12-10 10:02:39 51°19.457 2°56.865 75.5 11.5 77 11.8
2009-12-10 10:02:44 51°19.465 2°56.885 69.4 10.8 60 11.6
2009-12-10 10:02:49 51°19.467 2°56.91 71.4 11.3 79 11.2
2009-12-10 10:02:54 51°19.475 2°56.931 71.9 11 59 11.8
2009-12-10 10:02:59 51°19.48 2°56.954 65.9 10.8 73 11.2
2009-12-10 10:03:03 51°19.484 2°56.972 72.1 11 64 11.5
2009-12-10 10:03:08 51°19.49 2°56.994 67.4 11 70 11.5
2009-12-10 10:03:13 51°19.495 2°57.016 69.7 11 65 11.4
2009-12-10 10:03:19 51°19.501 2°57.045 70.2 11.5 76 11.5
2009-12-10 10:03:23 51°19.506 2°57.062 70 10.9 59 11.7
2009-12-10 10:03:28 51°19.512 2°57.084 65.7 10.9 75 11.2
2009-12-10 10:03:34 51°19.518 2°57.112 72.2 11.2 64 11.6
2009-12-10 10:03:38 51°19.524 2°57.129 66.1 10.8 71 11.6
2009-12-10 10:03:44 51°19.528 2°57.157 71.1 10.8 71 11.6
2009-12-10 10:03:48 51°19.534 2°57.175 70.3 10.9 70 11.8
2009-12-10 10:03:54 51°19.539 2°57.203 71.8 10.8 71 11.2
2009-12-10 10:03:58 51°19.542 2°57.222 73.6 11 78 11.7
2009-12-10 10:04:03 51°19.548 2°57.243 72.7 10.9 61 11.4
2009-12-10 10:04:09 51°19.553 2°57.272 69.3 11.5 79 11.7
2009-12-10 10:04:14 51°19.56 2°57.294 72.2 11.2 64 11.2
2009-12-10 10:04:19 51°19.564 2°57.317 69.6 10.8 75 11.3
2009-12-10 10:04:23 51°19.567 2°57.336 74.2 11.2 74 11.4
2009-12-10 10:04:28 51°19.572 2°57.359 73.2 11.1 68 11.3
2009-12-10 10:04:34 51°19.577 2°57.387 71.6 10.9 79 11.3
2009-12-10 10:04:39 51°19.581 2°57.411 77.7 11.1 73 11.5
2009-12-10 10:04:43 51°19.586 2°57.429 73.3 11 70 11.4
2009-12-10 10:04:48 51°19.589 2°57.453 74.2 10.9 78 11.6
2009-12-10 10:04:53 51°19.593 2°57.476 75.8 10.9 73 11.1
2009-12-10 10:04:59 51°19.596 2°57.506 76.3 11.5 81 11.6
2009-12-10 10:05:03 51°19.601 2°57.524 76.3 11.1 67 11.5
2009-12-10 10:05:08 51°19.605 2°57.547 73.6 10.9 80 11.4
2009-12-10 10:05:13 51°19.608 2°57.571 78.4 11.3 77 11.3
2009-12-10 10:05:19 51°19.614 2°57.599 76.3 11.1 71 11.6
2009-12-10 10:05:23 51°19.616 2°57.618 75.5 10.7 82 11.3
2009-12-10 10:05:28 51°19.619 2°57.642 79.4 11 77 11.5
2009-12-10 10:05:33 51°19.623 2°57.665 76.9 11.1 73 11.2
2009-12-10 10:05:39 51°19.627 2°57.693 76.3 10.8 79 11.2
2009-12-10 10:05:43 51°19.63 2°57.712 78.4 10.9 75 11.2
2009-12-10 10:05:49 51°19.634 2°57.741 77 11.3 78 11.3
2009-12-10 10:05:54 51°19.639 2°57.765 76 11.1 74 11.2
2009-12-10 10:05:58 51°19.64 2°57.784 78.2 10.9 82 11.4
2009-12-10 10:06:03 51°19.645 2°57.807 77.8 11.1 73 11.2
2009-12-10 10:06:09 51°19.649 2°57.835 76.3 10.7 77 11.1
2009-12-10 10:06:14 51°19.652 2°57.859 78.4 11 81 10.9
2009-12-10 10:06:19 51°19.656 2°57.883 79.6 11.1 73 11.5
2009-12-10 10:06:23 51°19.66 2°57.9 72.5 10.5 73 10.9
2009-12-10 10:06:29 51°19.662 2°57.93 78.1 11.2 81 11.1
2009-12-10 10:06:34 51°19.668 2°57.952 77.1 10.9 67 11.2
2009-12-10 10:06:38 51°19.671 2°57.971 73.4 11 82 11.1
2009-12-10 10:06:43 51°19.674 2°57.995 78.6 10.9 70 11.2
2009-12-10 10:06:49 51°19.679 2°58.022 72.7 11 78 10.9
2009-12-10 10:06:54 51°19.683 2°58.045 77.5 10.8 71 11.2
2009-12-10 10:06:59 51°19.687 2°58.068 72.5 10.8 77 11
2009-12-10 10:07:03 51°19.689 2°58.088 78.5 11 75 11.2
2009-12-10 10:07:08 51°19.695 2°58.11 74.8 10.9 75 11
2009-12-10 10:07:14 51°19.699 2°58.139 76 11 73 10.9
2009-12-10 10:07:19 51°19.703 2°58.162 74.8 10.9 78 11.1
2009-12-10 10:07:23 51°19.706 2°58.181 76.1 11 73 11
2009-12-10 10:07:28 51°19.709 2°58.205 77.4 11.3 80 11
2009-12-10 10:07:34 51°19.713 2°58.233 78.2 11 73 11.2
2009-12-10 10:07:39 51°19.716 2°58.257 76.9 10.7 82 10.9
2009-12-10 10:07:43 51°19.718 2°58.276 80.6 11.1 76 11
2009-12-10 10:07:49 51°19.723 2°58.305 77.2 10.9 77 11
2009-12-10 10:07:54 51°19.725 2°58.328 79.4 10.7 81 10.9
2009-12-10 10:07:58 51°19.728 2°58.347 79.2 11 76 11.2
2009-12-10 10:08:03 51°19.732 2°58.37 75.7 10.8 74 10.7
2009-12-10 10:08:09 51°19.733 2°58.399 79.9 11.1 87 11.1
2009-12-10 10:08:14 51°19.739 2°58.421 81.2 10.7 69 10.8
2009-12-10 10:08:18 51°19.741 2°58.44 76 10.9 81 10.7
2009-12-10 10:08:23 51°19.743 2°58.466 80.7 11.4 82 11.1
2009-12-10 10:08:29 51°19.749 2°58.493 77.3 10.7 72 -999
2009-12-10 10:08:34 51°19.748 2°58.517 80.7 11.1 89 11.1
2009-12-10 10:08:38 51°19.752 2°58.535 82.8 11 70 10.7
2009-12-10 10:08:43 51°19.755 2°58.559 76.1 11.1 85 10.9
2009-12-10 10:08:49 51°19.757 2°58.588 82.8 10.9 79 10.8
2009-12-10 10:08:54 51°19.76 2°58.612 80.8 10.7 83 10.5
2009-12-10 10:08:59 51°19.761 2°58.636 83.8 11.1 83 10.7
2009-12-10 10:09:03 51°19.763 2°58.656 84.3 11.1 87 10.5
2009-12-10 10:09:08 51°19.762 2°58.68 87.4 10.8 88 10.8
2009-12-10 10:09:14 51°19.765 2°58.708 85.2 10.8 82 10.6
2009-12-10 10:09:19 51°19.763 2°58.733 88.6 11.2 95 10.6
2009-12-10 10:09:23 51°19.765 2°58.753 90.6 11.2 83 10.4
2009-12-10 10:09:28 51°19.765 2°58.777 87.3 10.7 91 10.6
2009-12-10 10:09:33 51°19.765 2°58.801 89.7 10.9 92 10.5
2009-12-10 10:09:39 51°19.764 2°58.83 92 11.2 89 10.6
2009-12-10 10:09:43 51°19.765 2°58.85 90.4 10.8 91 10.4
2009-12-10 10:09:48 51°19.763 2°58.874 93.4 11 95 10.4
2009-12-10 10:09:53 51°19.763 2°58.898 91.9 10.9 86 10.5
2009-12-10 10:09:59 51°19.763 2°58.926 88.7 10.6 94 4.8
2009-12-10 10:10:03 51°19.761 2°58.946 95.7 11.1 95 10.3
2009-12-10 10:10:08 51°19.762 2°58.97 92.7 11 86 10.5
2009-12-10 10:10:14 51°19.761 2°58.999 90.1 10.6 95 10.2
2009-12-10 10:10:18 51°19.76 2°59.018 95 10.9 92 10.3
2009-12-10 10:10:24 51°19.762 2°59.046 89.9 10.8 84 10.2
2009-12-10 10:10:28 51°19.761 2°59.065 89.4 10.6 94 10.4
2009-12-10 10:10:34 51°19.762 2°59.094 91.5 10.8 87 10.2
2009-12-10 10:10:38 51°19.761 2°59.114 90 11.3 93 10.2
2009-12-10 10:10:43 51°19.763 2°59.138 89.4 11 81 9.9
2009-12-10 10:10:49 51°19.761 2°59.167 89.4 11.2 97 10.3
2009-12-10 10:10:54 51°19.763 2°59.192 90.8 11.1 82 10
2009-12-10 10:10:59 51°19.762 2°59.216 89.1 10.8 94 9.9
2009-12-10 10:11:03 51°19.763 2°59.235 92.2 11 84 10.2
2009-12-10 10:11:09 51°19.766 2°59.264 84.5 10.9 85 10.1
2009-12-10 10:11:14 51°19.766 2°59.288 87.9 10.8 87 9.8
2009-12-10 10:11:19 51°19.768 2°59.312 87.2 11 83 10.1
2009-12-10 10:11:23 51°19.77 2°59.331 82.4 10.8 80 9.9
2009-12-10 10:11:28 51°19.773 2°59.355 81.9 10.9 82 9.9
2009-12-10 10:11:34 51°19.775 2°59.384 82.6 11.3 80 10.2
2009-12-10 10:11:39 51°19.781 2°59.407 77.3 10.9 70 9.9
2009-12-10 10:11:43 51°19.783 2°59.425 75.9 10.8 79 9.8
2009-12-10 10:11:48 51°19.786 2°59.45 78.5 11.2 76 10.1
2009-12-10 10:11:53 51°19.792 2°59.472 74.1 10.9 69 9.6
2009-12-10 10:11:59 51°19.794 2°59.501 76.4 11 80 10.2
2009-12-10 10:12:03 51°19.8 2°59.519 74.7 11 67 9.7
2009-12-10 10:12:08 51°19.804 2°59.542 72.1 11 72 9.9
2009-12-10 10:12:13 51°19.81 2°59.565 71.5 11.1 73 9.7
2009-12-10 10:12:18 51°19.814 2°59.589 73.3 11.1 68 9.8
2009-12-10 10:12:24 51°19.82 2°59.615 70.4 10.8 72 9.7
2009-12-10 10:12:28 51°19.823 2°59.635 74.5 11.3 73 10.4
2009-12-10 10:12:34 51°19.832 2°59.661 68.3 11.1 63 9.8
2009-12-10 10:12:39 51°19.836 2°59.685 70.6 11 74 9.6
2009-12-10 10:12:43 51°19.84 2°59.703 71.6 11.1 66 10
2009-12-10 10:12:48 51°19.847 2°59.726 69 11 69 9.7
2009-12-10 10:12:54 51°19.851 2°59.755 71.7 11.4 74 10.1
2009-12-10 10:12:58 51°19.858 2°59.772 69.6 11.1 61 10.1
2009-12-10 10:13:03 51°19.863 2°59.795 68.6 11.1 77 9.5
2009-12-10 10:13:09 51°19.869 2°59.822 73.4 11.1 65 10
2009-12-10 10:13:14 51°19.876 2°59.844 66 10.9 66 9.8
2009-12-10 10:13:18 51°19.879 2°59.864 70 11.2 73 9.9
2009-12-10 10:13:23 51°19.886 2°59.886 70.3 11.3 64 9.7
2009-12-10 10:13:28 51°19.892 2°59.908 66.6 10.9 67 9.8
2009-12-10 10:13:34 51°19.896 2°59.936 70 11.1 76 9.8
2009-12-10 10:13:39 51°19.903 2°59.958 71 11 61 9.9
2009-12-10 10:13:44 51°19.908 2°59.981 66.9 10.9 75 9.7
2009-12-10 10:13:48 51°19.911 2°60 73.4 11.2 68 10.1
2009-12-10 10:13:54 51°19.92 3°0.025 66.8 10.8 66 -999
2009-12-10 10:13:59 51°19.923 3°0.049 71 11.1 74 9.5
2009-12-10 10:14:03 51°19.928 3°0.068 72 11.1 66 10.1
2009-12-10 10:14:08 51°19.935 3°0.089 68 10.9 71 9.8
2009-12-10 10:14:14 51°19.939 3°0.118 72.7 11 71 10
2009-12-10 10:14:18 51°19.944 3°0.136 70.5 11.2 72 9.8
2009-12-10 10:14:23 51°19.948 3°0.16 73.1 11 70 10.1
2009-12-10 10:14:28 51°19.954 3°0.182 70.3 11 74 9.7
2009-12-10 10:14:34 51°19.959 3°0.211 75.5 11.1 70 10
2009-12-10 10:14:38 51°19.963 3°0.229 71.5 11.1 73 9.5
2009-12-10 10:14:43 51°19.967 3°0.252 72.7 10.7 64 10
2009-12-10 10:14:49 51°19.976 3°0.278 65.6 10.9 71 9.5
2009-12-10 10:14:54 51°19.981 3°0.301 70.5 11.1 66 9.9
2009-12-10 10:14:58 51°19.986 3°0.318 66.8 10.8 66 9.6
2009-12-10 10:15:03 51°19.991 3°0.342 69 11.1 69 10
2009-12-10 10:15:09 51°20 3°0.367 66.7 11 63 9.8
2009-12-10 10:15:14 51°20.004 3°0.391 68.3 11.2 74 10
2009-12-10 10:15:18 51°20.01 3°0.408 69 11.1 60 10.1
2009-12-10 10:15:23 51°20.018 3°0.429 62.9 10.6 65 9.5
2009-12-10 10:15:28 51°20.022 3°0.452 68.6 10.9 69 10.1
2009-12-10 10:15:34 51°20.032 3°0.477 64.8 10.9 60 9.8
2009-12-10 10:15:39 51°20.037 3°0.499 65.3 10.8 67 9.4
2009-12-10 10:15:43 51°20.042 3°0.517 66.5 11.1 66 9.7
2009-12-10 10:15:48 51°20.049 3°0.538 64.8 10.9 61 10
2009-12-10 10:15:54 51°20.056 3°0.564 64 10.7 69 9.4
2009-12-10 10:15:59 51°20.063 3°0.587 69.6 11.1 63 10
2009-12-10 10:16:03 51°20.07 3°0.602 61.1 11 57 9.7
2009-12-10 10:16:08 51°20.076 3°0.624 62.3 10.8 64 9.7
2009-12-10 10:16:13 51°20.083 3°0.646 64.1 11.1 66 9.8
2009-12-10 10:16:19 51°20.092 3°0.671 63.6 11 57 9.5
2009-12-10 10:16:23 51°20.097 3°0.689 62.2 10.9 68 9.8
2009-12-10 10:16:28 51°20.103 3°0.711 65.9 10.9 65 9.4
2009-12-10 10:16:34 51°20.11 3°0.738 67.2 11.1 66 10
2009-12-10 10:16:39 51°20.119 3°0.758 63.8 10.9 59 9.6
2009-12-10 10:16:43 51°20.122 3°0.778 67.6 11.5 72 10.1
2009-12-10 10:16:49 51°20.132 3°0.802 64.5 11 54 9.8
2009-12-10 10:16:54 51°20.135 3°0.827 64.7 11.3 76 10.1
2009-12-10 10:16:58 51°20.143 3°0.843 67.9 11.1 55 9.8
2009-12-10 10:17:03 51°20.149 3°0.865 64 11 71 9.9
2009-12-10 10:17:09 51°20.156 3°0.891 67.3 10.9 62 9.8
2009-12-10 10:17:14 51°20.163 3°0.913 63.6 10.7 69 9.4
2009-12-10 10:17:18 51°20.166 3°0.932 68 11.2 66 10.2
2009-12-10 10:17:23 51°20.175 3°0.951 62.4 10.7 56 9.4
2009-12-10 10:17:29 51°20.181 3°0.978 61.8 10.7 69 10.3
2009-12-10 10:17:34 51°20.189 3°0.999 63.4 10.8 63 9.7
2009-12-10 10:17:39 51°20.195 3°1.021 66.5 11.1 67 9.5
2009-12-10 10:17:43 51°20.201 3°1.038 64 10.9 58 9.7
2009-12-10 10:17:49 51°20.208 3°1.064 62.6 10.8 69 9.8
2009-12-10 10:17:54 51°20.214 3°1.085 67.5 11 59 10
2009-12-10 10:17:58 51°20.219 3°1.103 64.5 10.9 71 10.4
2009-12-10 10:18:03 51°20.225 3°1.125 67.3 10.7 60 9.6
2009-12-10 10:18:09 51°20.233 3°1.151 65.2 10.7 67 9.9
2009-12-10 10:18:14 51°20.238 3°1.174 66.3 11.1 69 10.2
2009-12-10 10:18:18 51°20.244 3°1.191 65.5 10.8 59 10.4
2009-12-10 10:18:23 51°20.252 3°1.211 62.5 10.6 67 9.2
2009-12-10 10:18:28 51°20.256 3°1.235 67.9 11 67 10.5
2009-12-10 10:18:34 51°20.267 3°1.258 62.8 10.7 56 9.3
2009-12-10 10:18:39 51°20.271 3°1.282 65.1 11.1 69 10.5
2009-12-10 10:18:43 51°20.279 3°1.296 61.8 10.8 58 9.7
2009-12-10 10:18:48 51°20.283 3°1.32 64.4 10.9 70 10.5
2009-12-10 10:18:54 51°20.293 3°1.344 65.2 10.8 59 9.2
2009-12-10 10:18:58 51°20.296 3°1.363 63.5 10.8 67 10.3
2009-12-10 10:19:03 51°20.304 3°1.383 62.6 10.9 66 9.7
2009-12-10 10:19:09 51°20.309 3°1.411 69.5 10.8 67 10.1
2009-12-10 10:19:14 51°20.318 3°1.431 63.9 10.6 60 9.7
2009-12-10 10:19:18 51°20.32 3°1.45 66.3 10.8 72 10.2
2009-12-10 10:19:23 51°20.328 3°1.47 64.7 10.7 60 10.1
2009-12-10 10:19:29 51°20.334 3°1.497 65.3 10.8 71 9.7
2009-12-10 10:19:34 51°20.341 3°1.517 67.5 10.7 60 9.9
2009-12-10 10:19:38 51°20.346 3°1.534 63.7 10.6 71 9.9
2009-12-10 10:19:43 51°20.351 3°1.558 69.7 10.9 66 10.1
2009-12-10 10:19:49 51°20.36 3°1.581 63.4 10.6 60 -999
2009-12-10 10:19:54 51°20.364 3°1.604 67.9 10.8 70 9.6
2009-12-10 10:19:59 51°20.372 3°1.625 67.6 10.7 59 10.1
2009-12-10 10:20:03 51°20.376 3°1.642 64.5 10.7 69 9.7
2009-12-10 10:20:08 51°20.382 3°1.665 68.9 10.8 66 10.2
2009-12-10 10:20:14 51°20.391 3°1.689 63.3 10.5 60 9.7
2009-12-10 10:20:19 51°20.395 3°1.712 68.6 10.9 72 10.1
2009-12-10 10:20:24 51°20.402 3°1.733 67.4 10.7 61 9.9
2009-12-10 10:20:28 51°20.406 3°1.751 67.3 10.8 72 10.1
2009-12-10 10:20:34 51°20.414 3°1.777 68.5 10.9 61 9.9
2009-12-10 10:20:39 51°20.419 3°1.8 66.9 10.8 71 10
2009-12-10 10:20:43 51°20.424 3°1.816 67.7 10.7 65 9.9
2009-12-10 10:20:48 51°20.429 3°1.839 69.2 11.1 73 9.7
2009-12-10 10:20:53 51°20.435 3°1.861 68.6 10.8 61 10.1
2009-12-10 10:20:59 51°20.441 3°1.888 66.4 10.6 75 10
2009-12-10 10:21:03 51°20.445 3°1.906 71.2 10.6 67 10.3
2009-12-10 10:21:08 51°20.453 3°1.926 66.3 10.7 66 9.7
2009-12-10 10:21:13 51°20.457 3°1.95 68.9 10.8 67 9.8
2009-12-10 10:21:19 51°20.464 3°1.976 66.8 10.7 69 10
2009-12-10 10:21:23 51°20.469 3°1.993 67.6 10.6 64 9.6
2009-12-10 10:21:28 51°20.474 3°2.015 68.4 10.6 73 9.7
2009-12-10 10:21:33 51°20.48 3°2.037 69 10.9 64 9.6
2009-12-10 10:21:39 51°20.488 3°2.063 66.9 10.7 65 10.2
2009-12-10 10:21:43 51°20.491 3°2.081 67.7 10.7 75 10
2009-12-10 10:21:49 51°20.5 3°2.105 70.7 10.7 57 9.7
2009-12-10 10:21:54 51°20.505 3°2.127 62.8 10.7 68 9.6
2009-12-10 10:21:58 51°20.511 3°2.145 65.4 10.8 63 9.7
2009-12-10 10:22:03 51°20.517 3°2.166 65.4 10.7 67 9.5
2009-12-10 10:22:08 51°20.522 3°2.189 67.3 10.8 67 9.7
2009-12-10 10:22:14 51°20.531 3°2.214 65.8 10.8 67 9.4
2009-12-10 10:22:18 51°20.533 3°2.233 67.6 10.8 71 9.9
2009-12-10 10:22:23 51°20.541 3°2.253 66.3 10.7 62 9.6
2009-12-10 10:22:28 51°20.546 3°2.275 66.6 10.7 68 9.6
2009-12-10 10:22:34 51°20.554 3°2.301 66.7 10.8 66 9.7
2009-12-10 10:22:39 51°20.56 3°2.323 66.4 10.8 64 9.7
2009-12-10 10:22:43 51°20.565 3°2.34 66 10.5 67 9.6
2009-12-10 10:22:48 51°20.569 3°2.363 68.8 10.9 71 10.1
2009-12-10 10:22:54 51°20.579 3°2.387 66.9 10.7 58 10
2009-12-10 10:22:59 51°20.585 3°2.409 62.9 10.7 68 9.6
2009-12-10 10:23:03 51°20.589 3°2.426 66.5 10.6 63 10.1
2009-12-10 10:23:08 51°20.597 3°2.446 63.4 10.7 67 9.4
2009-12-10 10:23:13 51°20.601 3°2.47 69.4 10.8 65 10.2
2009-12-10 10:23:19 51°20.61 3°2.494 62.9 10.7 65 9.8
2009-12-10 10:23:23 51°20.614 3°2.512 66.9 10.6 64 9.8
2009-12-10 10:23:28 51°20.621 3°2.533 65.7 10.7 67 9.6
2009-12-10 10:23:33 51°20.626 3°2.555 67.5 10.7 64 10.2
2009-12-10 10:23:39 51°20.635 3°2.58 64.2 10.6 64 9.4
2009-12-10 10:23:43 51°20.638 3°2.598 68.5 10.6 66 10
2009-12-10 10:23:48 51°20.647 3°2.618 64 10.8 62 9.8
2009-12-10 10:23:54 51°20.653 3°2.644 65 10.6 64 10
2009-12-10 10:23:58 51°20.659 3°2.661 65.4 10.5 68 9.8
2009-12-10 10:24:03 51°20.663 3°2.684 68.8 10.9 68 10.4
2009-12-10 10:24:08 51°20.672 3°2.704 64.5 10.6 62 9.7
2009-12-10 10:24:14 51°20.676 3°2.732 68.3 10.7 75 10.2
2009-12-10 10:24:18 51°20.682 3°2.748 69.4 10.7 61 9.7
2009-12-10 10:24:23 51°20.686 3°2.77 67.7 10.6 73 9.9
2009-12-10 10:24:29 51°20.694 3°2.796 69 10.9 66 10
2009-12-10 10:24:34 51°20.698 3°2.819 69.8 10.6 69 9.9
2009-12-10 10:24:38 51°20.702 3°2.837 70.4 10.6 72 9.6
2009-12-10 10:24:43 51°20.708 3°2.859 70.7 10.7 62 9.9
2009-12-10 10:24:48 51°20.715 3°2.879 64.2 10.6 68 9.8
2009-12-10 10:24:54 51°20.721 3°2.906 68.6 10.5 68 9.9
2009-12-10 10:24:59 51°20.727 3°2.928 67.6 10.7 69 9.8
2009-12-10 10:25:03 51°20.73 3°2.946 69.8 10.7 71 9.9
2009-12-10 10:25:08 51°20.737 3°2.967 68.5 10.6 66 9.7
2009-12-10 10:25:13 51°20.74 3°2.99 71.2 10.7 73 9.8
2009-12-10 10:25:19 51°20.747 3°3.016 70.6 10.7 69 9.9
2009-12-10 10:25:23 51°20.751 3°3.035 70.5 10.8 72 9.7
2009-12-10 10:25:28 51°20.755 3°3.057 72.4 10.6 69 9.8
2009-12-10 10:25:34 51°20.761 3°3.084 70.5 10.6 73 9.5
2009-12-10 10:25:38 51°20.763 3°3.103 74.1 10.9 72 10.2
2009-12-10 10:25:43 51°20.77 3°3.123 68.9 10.5 67 9.9
2009-12-10 10:25:49 51°20.774 3°3.151 73 10.7 77 9.8
2009-12-10 10:25:54 51°20.779 3°3.173 73.1 10.6 66 10.1
2009-12-10 10:25:58 51°20.784 3°3.19 68.8 10.4 74 9.5
2009-12-10 10:26:03 51°20.786 3°3.214 74.5 10.7 74 10.1
2009-12-10 10:26:09 51°20.794 3°3.238 69.6 10.2 65 9.8
2009-12-10 10:26:14 51°20.796 3°3.262 72.7 10.8 80 9.9
2009-12-10 10:26:18 51°20.802 3°3.278 72.6 10.4 59 10.1
2009-12-10 10:26:23 51°20.807 3°3.3 66.4 10.4 77 9.9
2009-12-10 10:26:29 51°20.812 3°3.326 73 10.6 67 10.1
2009-12-10 10:26:34 51°20.818 3°3.347 68.1 10.2 68 10
2009-12-10 10:26:39 51°20.822 3°3.37 70.5 10.7 75 9.9
2009-12-10 10:26:43 51°20.827 3°3.387 71.2 10.6 63 10.1
2009-12-10 10:26:49 51°20.832 3°3.413 67 10.4 76 5
2009-12-10 10:26:54 51°20.837 3°3.435 74.5 10.6 71 10.1
2009-12-10 10:26:59 51°20.843 3°3.456 69.9 10.4 66 10.2
2009-12-10 10:27:03 51°20.846 3°3.475 71.5 10.7 77 9.8
2009-12-10 10:27:08 51°20.85 3°3.497 73.3 10.7 63 10.4
2009-12-10 10:27:14 51°20.856 3°3.523 67.2 10.5 76 10.5
2009-12-10 10:27:19 51°20.861 3°3.545 72.2 10.3 70 9.8
2009-12-10 10:27:23 51°20.864 3°3.564 72.7 10.8 75 10.3
2009-12-10 10:27:28 51°20.871 3°3.583 69 10.4 60 9.9
2009-12-10 10:27:33 51°20.874 3°3.606 68 10.5 78 10.4
2009-12-10 10:27:39 51°20.882 3°3.631 70.1 10.4 62 10
2009-12-10 10:27:43 51°20.885 3°3.648 67.9 10.4 74 10.3
2009-12-10 10:27:48 51°20.891 3°3.669 69.4 10.4 64 9.8
2009-12-10 10:27:53 51°20.895 3°3.692 69.4 10.5 72 10.2
2009-12-10 10:27:59 51°20.902 3°3.717 68.3 10.3 68 10
2009-12-10 10:28:03 51°20.904 3°3.736 72.6 10.5 74 10.4
2009-12-10 10:28:08 51°20.911 3°3.756 69.6 10.4 68 10.4
2009-12-10 10:28:13 51°20.915 3°3.778 69.6 10.3 72 10
2009-12-10 10:28:19 51°20.921 3°3.805 72.5 10.6 71 10
2009-12-10 10:28:23 51°20.925 3°3.823 70.3 10.6 72 10.4
2009-12-10 10:28:28 51°20.93 3°3.845 70.4 10.4 70 10.2
2009-12-10 10:28:34 51°20.935 3°3.872 73.4 10.8 75 10
2009-12-10 10:28:39 51°20.94 3°3.894 71.8 10.8 68 10.6
2009-12-10 10:28:43 51°20.945 3°3.911 68.5 10.3 70 9.9
2009-12-10 10:28:49 51°20.949 3°3.939 73.7 10.5 74 10.3
2009-12-10 10:28:54 51°20.955 3°3.96 69.4 10.5 66 10.2
2009-12-10 10:28:58 51°20.959 3°3.978 70.4 10.6 74 10.1
2009-12-10 10:29:03 51°20.964 3°4 71.6 10.6 67 9.9
2009-12-10 10:29:08 51°20.968 3°4.022 70 10.6 74 10.4
2009-12-10 10:29:14 51°20.975 3°4.048 70.4 10.6 68 10.2
2009-12-10 10:29:18 51°20.977 3°4.067 72.1 10.8 76 10.5
2009-12-10 10:29:23 51°20.984 3°4.088 70.4 10.6 66 10.3
2009-12-10 10:29:28 51°20.988 3°4.11 70.8 10.3 74 10.1
2009-12-10 10:29:33 51°20.991 3°4.133 73 10.8 74 10.3
2009-12-10 10:29:39 51°20.999 3°4.158 69.8 10.6 63 10.1
2009-12-10 10:29:43 51°21.003 3°4.176 68.7 10.5 72 9.8
2009-12-10 10:29:48 51°21.006 3°4.199 71.2 10.7 69 10.7
2009-12-10 10:29:54 51°21.015 3°4.224 66.9 10.4 67 10.4
2009-12-10 10:29:59 51°21.018 3°4.248 71.7 10.9 77 10.2
2009-12-10 10:30:03 51°21.023 3°4.264 71.1 10.6 62 9.9
2009-12-10 10:30:09 51°21.028 3°4.29 68.5 10.3 76 10.2
2009-12-10 10:30:14 51°21.033 3°4.312 71.9 10.5 69 10.3
2009-12-10 10:30:18 51°21.037 3°4.329 69.9 10.4 68 10.3
2009-12-10 10:30:24 51°21.043 3°4.355 69.9 10.5 73 10
2009-12-10 10:30:29 51°21.048 3°4.377 71.6 10.7 68 10.4
2009-12-10 10:30:34 51°21.053 3°4.4 69.3 10.5 73 10.4
2009-12-10 10:30:38 51°21.056 3°4.417 72.7 10.5 70 10
2009-12-10 10:30:44 51°21.063 3°4.443 69.9 10.6 66 10.2
2009-12-10 10:30:48 51°21.066 3°4.461 70.6 10.4 76 10.1
2009-12-10 10:30:54 51°21.072 3°4.487 72.9 10.5 67 10.3
2009-12-10 10:30:59 51°21.077 3°4.51 70.6 10.8 75 10.1
2009-12-10 10:31:03 51°21.08 3°4.528 72.4 10.5 66 10.6
2009-12-10 10:31:08 51°21.087 3°4.548 68.1 10.5 73 10.1
2009-12-10 10:31:14 51°21.09 3°4.577 74.5 10.7 74 10.8
2009-12-10 10:31:18 51°21.096 3°4.593 69.8 10.3 67 10.1
2009-12-10 10:31:23 51°21.098 3°4.616 72.7 10.8 78 10.5
2009-12-10 10:31:28 51°21.105 3°4.638 71.8 10.7 63 10
2009-12-10 10:31:34 51°21.11 3°4.664 70.3 10.5 75 10
2009-12-10 10:31:39 51°21.114 3°4.686 71.8 10.5 70 10.5
2009-12-10 10:31:43 51°21.119 3°4.704 71 10.6 75 10.3
2009-12-10 10:31:48 51°21.122 3°4.727 72.8 10.6 68 10
2009-12-10 10:31:54 51°21.128 3°4.754 71 10.8 77 10.6
2009-12-10 10:31:59 51°21.133 3°4.775 72 10.3 66 9.9
2009-12-10 10:32:03 51°21.136 3°4.793 71.5 10.7 77 10.3
2009-12-10 10:32:09 51°21.142 3°4.819 71.9 10.4 66 10.4
2009-12-10 10:32:14 51°21.146 3°4.842 70.8 10.5 75 10.2
2009-12-10 10:32:18 51°21.15 3°4.86 74.7 10.6 66 10.6
2009-12-10 10:32:23 51°21.156 3°4.88 67.3 10.2 69 9.9
2009-12-10 10:32:29 51°21.16 3°4.908 73.1 10.8 75 10.7
2009-12-10 10:32:34 51°21.167 3°4.929 69 10.6 66 10.1
2009-12-10 10:32:38 51°21.169 3°4.948 71.3 10.5 74 10.5
2009-12-10 10:32:43 51°21.176 3°4.968 69.3 10.4 65 10.2
2009-12-10 10:32:49 51°21.18 3°4.996 70.2 10.7 75 10.6
2009-12-10 10:32:54 51°21.188 3°5.016 69 10.6 62 10.3
2009-12-10 10:32:58 51°21.19 3°5.035 71.3 10.4 78 10.5
2009-12-10 10:33:03 51°21.195 3°5.055 71.1 10.3 64 10.4
2009-12-10 10:33:09 51°21.201 3°5.082 69 10.7 75 10.5
2009-12-10 10:33:14 51°21.206 3°5.103 70.6 10.5 64 10.5
2009-12-10 10:33:18 51°21.21 3°5.121 69.7 10.6 75 10.2
2009-12-10 10:33:23 51°21.213 3°5.144 72.8 10.3 69 10.8
2009-12-10 10:33:29 51°21.221 3°5.168 67.3 10.2 67 10.1
2009-12-10 10:33:34 51°21.224 3°5.192 72.7 10.9 77 11
2009-12-10 10:33:39 51°21.232 3°5.211 68.2 10.3 59 10.5
2009-12-10 10:33:43 51°21.234 3°5.229 68.4 10.5 76 10.2
2009-12-10 10:33:48 51°21.239 3°5.252 72.4 10.5 68 11
2009-12-10 10:33:54 51°21.246 3°5.276 65.7 10 75 4.9
2009-12-10 10:33:59 51°21.249 3°5.298 73.9 10.4 75 10.3
2009-12-10 10:34:03 51°21.253 3°5.315 70.8 10.4 67 10.6
2009-12-10 10:34:08 51°21.259 3°5.336 68 10.2 72 10.5
2009-12-10 10:34:14 51°21.263 3°5.362 73.1 10.1 72 10.2
2009-12-10 10:34:19 51°21.268 3°5.384 71.2 10.6 71 10.4